createdAt,value
2019-01-22T00:00:56.284Z,-3.39
2019-01-22T00:06:01.597Z,-3.38
2019-01-22T00:11:06.816Z,-3.26
2019-01-22T00:16:12.272Z,-2.96
2019-01-22T00:21:17.400Z,-2.64
2019-01-22T00:26:22.572Z,-2.74
2019-01-22T00:31:27.598Z,-3.02
2019-01-22T00:36:32.965Z,-3.28
2019-01-22T00:41:38.055Z,-3.36
2019-01-22T00:46:43.462Z,-3.48
2019-01-22T00:51:48.744Z,-3.46
2019-01-22T00:56:53.815Z,-3.51
2019-01-22T01:01:58.870Z,-3.52
2019-01-22T01:07:04.171Z,-3.52
2019-01-22T01:12:09.241Z,-3.50
2019-01-22T01:17:14.986Z,-3.54
2019-01-22T01:22:20.422Z,-3.47
2019-01-22T01:27:27.200Z,-3.49
2019-01-22T01:32:47.688Z,-3.49
2019-01-22T01:37:52.830Z,-3.56
2019-01-22T01:42:58.234Z,-3.57
2019-01-22T01:48:05.698Z,-3.54
2019-01-22T01:53:10.863Z,-3.61
2019-01-22T01:58:16.419Z,-3.62
2019-01-22T02:03:21.575Z,-3.65
2019-01-22T02:08:26.777Z,-3.69
2019-01-22T02:13:39.157Z,-3.73
2019-01-22T02:19:10.357Z,-3.82
2019-01-22T02:24:43.874Z,-3.85
2019-01-22T02:30:04.641Z,-3.82
2019-01-22T02:35:37.352Z,-3.87
2019-01-22T02:41:20.234Z,-3.90
2019-01-22T02:46:38.985Z,-3.88
2019-01-22T02:52:08.277Z,-3.91
2019-01-22T02:57:56.674Z,-3.92
2019-01-22T03:03:30.529Z,-3.92
2019-01-22T03:09:06.475Z,-3.93
2019-01-22T03:14:53.652Z,-3.93
2019-01-22T03:20:48.988Z,-3.94
2019-01-22T03:26:34.681Z,-4.02
2019-01-22T03:32:19.784Z,-4.04
2019-01-22T03:38:17.787Z,-4.17
2019-01-22T03:43:39.942Z,-4.26
2019-01-22T03:48:56.137Z,-4.33
2019-01-22T03:54:26.097Z,-4.35
2019-01-22T03:59:31.706Z,-4.33
2019-01-22T04:04:37.085Z,-4.34
2019-01-22T04:09:53.195Z,-4.31
2019-01-22T04:14:58.461Z,-4.29
2019-01-22T04:20:03.948Z,-4.24
2019-01-22T04:25:33.365Z,-4.27
2019-01-22T04:31:05.311Z,-4.31
2019-01-22T04:36:59.722Z,-4.32
2019-01-22T04:42:35.168Z,-4.23
2019-01-22T04:48:05.985Z,-4.29
2019-01-22T04:53:55.479Z,-4.37
2019-01-22T04:59:23.124Z,-4.35
2019-01-22T05:04:54.540Z,-4.39
2019-01-22T05:10:14.415Z,-4.43
2019-01-22T05:16:07.469Z,-4.47
2019-01-22T05:21:25.179Z,-4.57
2019-01-22T05:27:14.779Z,-4.54
2019-01-22T05:32:55.616Z,-4.64
2019-01-22T05:38:35.604Z,-4.66
2019-01-22T05:44:19.699Z,-4.74
2019-01-22T05:49:52.993Z,-4.71
2019-01-22T05:55:07.666Z,-4.74
2019-01-22T06:00:41.743Z,-4.77
2019-01-22T06:06:17.478Z,-4.80
2019-01-22T06:12:06.287Z,-4.79
2019-01-22T06:18:03.452Z,-4.80
2019-01-22T06:24:07.836Z,-4.87
2019-01-22T06:29:45.900Z,-4.93
2019-01-22T06:35:10.204Z,-4.92
2019-01-22T06:40:56.519Z,-4.88
2019-01-22T06:46:26.853Z,-4.90
2019-01-22T06:52:06.393Z,-4.92
2019-01-22T06:57:31.057Z,-4.89
2019-01-22T07:03:22.202Z,-4.91
2019-01-22T07:09:22.625Z,-4.89
2019-01-22T07:15:20.961Z,-4.83
2019-01-22T07:21:28.846Z,-4.84
2019-01-22T07:27:16.508Z,-4.81
2019-01-22T07:32:39.893Z,-4.76
2019-01-22T07:38:06.106Z,-4.80
2019-01-22T07:44:10.654Z,-4.74
2019-01-22T07:49:39.705Z,-4.69
2019-01-22T07:55:15.097Z,-4.61
2019-01-22T08:00:38.569Z,-4.63
2019-01-22T08:06:20.203Z,-4.59
2019-01-22T08:11:55.037Z,-4.60
2019-01-22T08:17:21.632Z,-4.56
2019-01-22T08:23:03.315Z,-4.50
2019-01-22T08:29:08.830Z,-4.56
2019-01-22T08:34:54.721Z,-4.45
2019-01-22T08:40:58.406Z,-4.37
2019-01-22T08:46:18.085Z,-4.22
2019-01-22T08:52:01.987Z,-4.11
2019-01-22T08:57:51.263Z,-4.04
2019-01-22T09:03:19.613Z,-3.90
2019-01-22T09:08:58.891Z,-3.77
2019-01-22T09:14:44.900Z,-3.71
2019-01-22T09:20:25.653Z,-3.66
2019-01-22T09:25:51.331Z,-3.65
2019-01-22T09:31:16.883Z,-3.51
2019-01-22T09:37:02.094Z,-3.42
2019-01-22T09:42:07.149Z,-3.35
2019-01-22T09:47:12.411Z,-3.19
2019-01-22T09:52:17.583Z,-3.12
2019-01-22T09:57:23.092Z,-3.06
2019-01-22T10:02:33.975Z,-2.99
2019-01-22T10:07:39.426Z,-2.81
2019-01-22T10:12:45.155Z,-2.70
2019-01-22T10:17:50.886Z,-2.58
2019-01-22T10:22:56.321Z,-2.50
2019-01-22T10:28:01.559Z,-2.37
2019-01-22T10:33:06.911Z,-2.22
2019-01-22T10:38:50.443Z,-2.15
2019-01-22T10:44:25.510Z,-2.00
2019-01-22T10:49:52.825Z,-1.96
2019-01-22T10:55:04.863Z,-1.90
2019-01-22T11:00:35.557Z,-1.72
2019-01-22T11:05:42.507Z,-1.66
2019-01-22T11:11:08.701Z,-1.50
2019-01-22T11:16:15.120Z,-1.45
2019-01-22T11:21:20.708Z,-1.18
2019-01-22T11:26:26.407Z,-0.30
2019-01-22T11:31:39.090Z,1.28
2019-01-22T11:36:54.526Z,4.20
2019-01-22T11:42:26.042Z,6.38
2019-01-22T11:47:33.926Z,8.02
2019-01-22T11:52:39.857Z,9.46
2019-01-22T11:57:45.990Z,9.83
2019-01-22T12:02:52.501Z,8.65
2019-01-22T12:07:58.099Z,8.25
2019-01-22T12:13:03.783Z,8.67
2019-01-22T12:18:09.580Z,8.02
2019-01-22T12:23:15.202Z,7.13
2019-01-22T12:28:20.128Z,6.91
2019-01-22T12:33:25.995Z,5.19
2019-01-22T12:38:31.576Z,3.70
2019-01-22T12:43:37.239Z,2.76
2019-01-22T12:48:42.969Z,3.65
2019-01-22T12:53:54.653Z,4.31
2019-01-22T12:59:10.111Z,4.12
2019-01-22T13:04:15.708Z,3.70
2019-01-22T13:10:00.607Z,2.87
2019-01-22T13:40:54.117Z,1.71
2019-01-22T13:46:02.604Z,1.22
2019-01-22T13:51:11.783Z,0.99
2019-01-22T13:56:18.585Z,0.81
2019-01-22T14:01:24.384Z,0.74
2019-01-22T14:06:31.060Z,0.72
2019-01-22T14:11:36.544Z,0.68
2019-01-22T14:16:56.948Z,0.69
2019-01-22T14:22:03.733Z,0.63
2019-01-22T14:27:09.399Z,0.64
2019-01-22T14:32:14.856Z,0.54
2019-01-22T14:37:20.675Z,0.52
2019-01-22T14:42:27.874Z,0.42
2019-01-22T14:47:33.487Z,0.38
2019-01-22T14:52:41.508Z,0.39
2019-01-22T14:57:47.198Z,0.40
2019-01-22T15:02:53.395Z,0.37
2019-01-22T15:07:59.000Z,0.32
2019-01-22T15:13:05.786Z,0.37
2019-01-22T15:18:14.014Z,0.31
2019-01-22T15:23:29.576Z,0.21
2019-01-22T15:28:38.806Z,0.14
2019-01-22T15:33:45.917Z,0.06
2019-01-22T15:38:59.692Z,0.10
2019-01-22T15:44:13.338Z,0.06
2019-01-22T15:49:27.480Z,-0.07
2019-01-22T15:54:32.928Z,-0.18
2019-01-22T15:59:38.890Z,-0.23
2019-01-22T16:04:44.568Z,-0.28
2019-01-22T16:09:50.600Z,-0.28
2019-01-22T16:14:58.645Z,-0.31
2019-01-22T16:20:06.616Z,-0.39
2019-01-22T16:25:16.181Z,-0.42
2019-01-22T16:30:26.823Z,-0.42
2019-01-22T16:35:32.414Z,-0.43
2019-01-22T16:40:40.850Z,-0.47
2019-01-22T16:45:47.394Z,-0.53
2019-01-22T16:50:52.932Z,-0.59
2019-01-22T16:55:58.425Z,-0.66
2019-01-22T17:01:04.127Z,-0.64
2019-01-22T17:06:10.573Z,-0.74
2019-01-22T17:11:17.230Z,-0.85
2019-01-22T17:16:24.044Z,-0.89
2019-01-22T17:21:29.586Z,-0.86
2019-01-22T17:26:35.196Z,-0.96
2019-01-22T17:32:04.634Z,-1.01
2019-01-22T17:37:10.283Z,-1.10
2019-01-22T17:42:17.081Z,-1.19
2019-01-22T17:47:23.819Z,-1.22
2019-01-22T17:52:30.228Z,-1.33
2019-01-22T17:57:39.471Z,-1.39
2019-01-22T18:02:46.501Z,-1.45
2019-01-22T18:07:52.537Z,-1.46
2019-01-22T18:12:58.924Z,-1.52
2019-01-22T18:18:04.600Z,-1.60
2019-01-22T18:23:10.288Z,-1.60
2019-01-22T18:28:15.569Z,-1.63
2019-01-22T18:33:22.688Z,-1.61
2019-01-22T18:38:28.192Z,-1.57
2019-01-22T18:43:34.093Z,-1.66
2019-01-22T18:48:40.226Z,-1.73
2019-01-22T18:54:06.680Z,-1.80
2019-01-22T18:59:14.949Z,-1.82
2019-01-22T19:04:23.276Z,-1.85
2019-01-22T19:09:30.717Z,-1.86
2019-01-22T19:14:39.964Z,-1.86
2019-01-22T19:19:47.936Z,-1.90
2019-01-22T19:24:53.733Z,-1.90
2019-01-22T19:30:06.846Z,-1.96
2019-01-22T19:35:27.714Z,-1.99
2019-01-22T19:40:40.355Z,-2.05
2019-01-22T19:45:50.828Z,-2.10
2019-01-22T19:50:57.666Z,-2.10
2019-01-22T19:56:08.001Z,-2.12
2019-01-22T20:01:25.601Z,-2.13
2019-01-22T20:06:34.832Z,-2.16
2019-01-22T20:11:40.206Z,-2.18
2019-01-22T20:16:45.572Z,-2.19
2019-01-22T20:21:50.816Z,-2.23
2019-01-22T20:27:05.384Z,-2.30
2019-01-22T20:32:10.598Z,-2.37
2019-01-22T20:37:15.939Z,-2.41
2019-01-22T20:42:21.219Z,-2.42
2019-01-22T20:47:26.400Z,-2.45
2019-01-22T20:52:32.334Z,-2.47
2019-01-22T20:57:37.905Z,-2.45
2019-01-22T21:02:43.109Z,-2.50
2019-01-22T21:07:48.224Z,-2.53
2019-01-22T21:12:54.068Z,-2.56
2019-01-22T21:17:59.251Z,-2.60
2019-01-22T21:23:04.717Z,-2.62
2019-01-22T21:28:09.808Z,-2.61
2019-01-22T21:33:16.246Z,-2.65
2019-01-22T21:38:21.450Z,-2.63
2019-01-22T21:43:26.769Z,-2.62
2019-01-22T21:48:33.799Z,-2.64
2019-01-22T21:53:44.289Z,-2.64
2019-01-22T21:58:50.318Z,-2.61
2019-01-22T22:03:55.742Z,-2.66
2019-01-22T22:09:02.248Z,-2.68
2019-01-22T22:14:10.956Z,-2.74
2019-01-22T22:19:16.594Z,-2.70
2019-01-22T22:24:26.988Z,-2.70
2019-01-22T22:29:34.571Z,-2.71
2019-01-22T22:34:40.826Z,-2.73
2019-01-22T22:39:46.054Z,-2.74
2019-01-22T22:44:51.130Z,-2.75
2019-01-22T22:49:56.526Z,-2.78
2019-01-22T22:55:02.120Z,-2.82
2019-01-22T23:00:33.596Z,-2.84
2019-01-22T23:05:42.498Z,-2.86
2019-01-22T23:10:47.566Z,-2.93
2019-01-22T23:15:52.650Z,-2.95
2019-01-22T23:20:58.845Z,-2.97
2019-01-22T23:26:04.054Z,-3.00
2019-01-22T23:31:09.112Z,-3.03
2019-01-22T23:36:14.706Z,-3.06
2019-01-22T23:41:19.915Z,-3.05
2019-01-22T23:46:25.215Z,-3.05
2019-01-22T23:51:30.362Z,-3.11
2019-01-22T23:56:35.692Z,-3.15
